createdAt,value
2023-03-12T00:01:14.627Z,224.35
2023-03-12T00:03:43.149Z,215.07
2023-03-12T00:06:11.825Z,271.13
2023-03-12T00:08:40.858Z,292.30
2023-03-12T00:11:10.582Z,274.80
2023-03-12T00:13:39.587Z,210.25
2023-03-12T00:16:10.588Z,280.00
2023-03-12T00:18:40.858Z,302.45
2023-03-12T00:21:10.020Z,283.58
2023-03-12T00:23:38.442Z,255.50
2023-03-12T00:26:08.722Z,218.57
2023-03-12T00:28:37.454Z,197.40
2023-03-12T00:31:14.361Z,296.35
2023-03-12T00:33:44.232Z,250.77
2023-03-12T00:36:12.651Z,240.38
2023-03-12T00:38:42.207Z,181.35
2023-03-12T00:41:10.878Z,277.15
2023-03-12T00:43:39.349Z,257.98
2023-03-12T00:46:07.731Z,241.52
2023-03-12T00:48:36.065Z,235.73
2023-03-12T00:51:06.277Z,234.88
2023-03-12T00:53:34.607Z,298.95
2023-03-12T00:56:03.262Z,242.90
2023-03-12T00:58:31.642Z,303.90
2023-03-12T01:01:00.113Z,266.00
2023-03-12T01:03:28.668Z,295.00
2023-03-12T01:05:57.058Z,268.15
2023-03-12T01:08:26.985Z,274.98
2023-03-12T01:10:55.362Z,263.98
2023-03-12T01:13:23.825Z,259.17
2023-03-12T01:15:52.162Z,276.05
2023-03-12T01:18:20.540Z,282.33
2023-03-12T01:20:49.228Z,255.50
2023-03-12T01:23:17.623Z,264.60
2023-03-12T01:25:47.871Z,244.25
2023-03-12T01:28:16.224Z,268.25
2023-03-12T01:30:44.562Z,281.65
2023-03-12T01:33:12.958Z,284.45
2023-03-12T01:35:42.157Z,298.80
2023-03-12T01:38:14.105Z,261.55
2023-03-12T01:40:43.552Z,209.27
2023-03-12T01:43:28.633Z,223.27
2023-03-12T01:48:33.619Z,182.23
2023-03-12T01:51:02.671Z,308.35
2023-03-12T01:53:31.834Z,265.85
2023-03-12T01:56:00.572Z,172.80
2023-03-12T01:58:32.033Z,84.88
2023-03-12T02:01:00.479Z,305.88
2023-03-12T02:03:29.808Z,287.08
2023-03-12T02:06:03.418Z,218.07
2023-03-12T02:08:32.303Z,316.98
2023-03-12T02:11:00.860Z,176.25
2023-03-12T02:13:30.601Z,339.67
2023-03-12T02:15:58.906Z,180.63
2023-03-12T02:18:27.416Z,233.43
2023-03-12T02:21:01.216Z,159.95
2023-03-12T02:23:33.372Z,116.57
2023-03-12T02:26:04.034Z,242.50
2023-03-12T02:28:32.423Z,174.40
2023-03-12T02:31:03.570Z,108.93
2023-03-12T02:33:32.238Z,236.30
2023-03-12T02:36:00.714Z,272.65
2023-03-12T02:38:42.129Z,215.00
2023-03-12T02:41:16.871Z,270.67
2023-03-12T02:43:46.451Z,222.70
2023-03-12T02:46:15.562Z,282.60
2023-03-12T02:48:44.211Z,295.95
2023-03-12T02:51:12.595Z,310.73
2023-03-12T02:53:41.485Z,294.10
2023-03-12T02:56:09.828Z,290.85
2023-03-12T02:58:39.628Z,167.85
2023-03-12T03:01:08.053Z,197.15
2023-03-12T03:03:36.526Z,271.27
2023-03-12T03:06:05.161Z,282.70
2023-03-12T03:08:33.546Z,261.05
2023-03-12T03:11:03.133Z,336.15
2023-03-12T03:13:31.756Z,241.77
2023-03-12T03:16:02.142Z,217.73
2023-03-12T03:18:31.680Z,204.82
2023-03-12T03:21:01.813Z,301.27
2023-03-12T03:23:30.589Z,250.77
2023-03-12T03:25:59.553Z,205.68
2023-03-12T03:28:29.561Z,332.70
2023-03-12T03:31:01.791Z,278.08
2023-03-12T03:33:30.706Z,298.17
2023-03-12T03:36:00.248Z,241.73
2023-03-12T03:38:29.272Z,133.85
2023-03-12T03:40:57.996Z,105.78
2023-03-12T03:43:26.638Z,174.73
2023-03-12T03:46:00.261Z,110.53
2023-03-12T03:48:28.685Z,128.88
2023-03-12T03:51:00.412Z,102.82
2023-03-12T03:53:28.822Z,96.70
2023-03-12T03:55:57.142Z,93.50
2023-03-12T03:58:25.510Z,103.82
2023-03-12T04:00:55.076Z,213.85
2023-03-12T04:03:24.930Z,593.45
2023-03-12T04:05:56.354Z,182.60
2023-03-12T04:08:24.810Z,93.80
2023-03-12T04:10:53.213Z,179.07
2023-03-12T04:13:21.608Z,131.15
2023-03-12T04:15:51.177Z,164.88
2023-03-12T04:18:20.026Z,144.25
2023-03-12T04:20:49.757Z,102.13
2023-03-12T04:23:18.071Z,97.07
2023-03-12T04:25:46.514Z,147.38
2023-03-12T04:28:14.925Z,99.50
2023-03-12T04:30:43.315Z,122.30
2023-03-12T04:37:02.752Z,269.38
2023-03-12T04:39:31.114Z,120.75
2023-03-12T04:41:59.500Z,97.55
2023-03-12T04:44:27.884Z,100.10
2023-03-12T04:46:56.376Z,109.75
2023-03-12T04:49:24.819Z,141.15
2023-03-12T04:51:53.151Z,80.88
2023-03-12T04:54:23.329Z,100.60
2023-03-12T04:56:52.258Z,96.82
2023-03-12T04:59:20.584Z,129.57
2023-03-12T05:01:48.995Z,253.32
2023-03-12T05:04:17.591Z,123.95
2023-03-12T05:06:45.913Z,128.40
2023-03-12T05:09:14.241Z,128.23
2023-03-12T05:11:43.958Z,141.70
2023-03-12T05:14:13.433Z,100.57
2023-03-12T05:16:42.133Z,124.30
2023-03-12T05:19:10.625Z,162.65
2023-03-12T05:21:40.416Z,211.82
2023-03-12T05:24:09.509Z,227.68
2023-03-12T05:26:38.731Z,295.95
2023-03-12T05:29:08.503Z,538.45
2023-03-12T05:31:36.903Z,189.98
2023-03-12T05:34:05.934Z,346.23
2023-03-12T05:36:34.398Z,232.77
2023-03-12T05:39:02.737Z,296.83
2023-03-12T05:41:31.863Z,300.20
2023-03-12T05:44:00.603Z,466.73
2023-03-12T05:46:30.569Z,299.08
2023-03-12T05:48:58.932Z,405.55
2023-03-12T05:51:27.437Z,515.78
2023-03-12T05:53:55.817Z,546.40
2023-03-12T05:56:24.223Z,481.13
2023-03-12T05:58:52.789Z,554.90
2023-03-12T06:01:23.162Z,531.15
2023-03-12T06:03:52.852Z,532.10
2023-03-12T06:06:21.454Z,537.67
2023-03-12T06:08:50.069Z,588.72
2023-03-12T06:11:18.885Z,581.53
2023-03-12T06:13:47.195Z,549.92
2023-03-12T06:16:19.093Z,568.17
2023-03-12T06:18:47.716Z,417.15
2023-03-12T06:21:19.442Z,556.40
2023-03-12T06:23:48.756Z,525.67
2023-03-12T06:26:18.382Z,561.42
2023-03-12T06:28:46.804Z,552.42
2023-03-12T06:31:15.734Z,559.88
2023-03-12T06:33:44.300Z,544.08
2023-03-12T06:36:13.034Z,392.20
2023-03-12T06:38:42.956Z,534.22
2023-03-12T06:41:12.747Z,542.03
2023-03-12T06:43:41.907Z,561.90
2023-03-12T06:46:14.774Z,511.13
2023-03-12T06:48:44.080Z,542.70
2023-03-12T06:51:13.763Z,516.35
2023-03-12T06:53:43.667Z,543.17
2023-03-12T06:56:12.510Z,486.35
2023-03-12T06:58:41.222Z,583.05
2023-03-12T07:01:09.847Z,624.03
2023-03-12T07:03:38.424Z,573.22
2023-03-12T07:06:11.675Z,565.25
2023-03-12T07:08:40.201Z,517.33
2023-03-12T07:11:10.273Z,606.33
2023-03-12T07:13:38.920Z,588.47
2023-03-12T07:16:08.452Z,592.75
2023-03-12T07:18:37.240Z,630.80
2023-03-12T07:21:06.710Z,622.03
2023-03-12T07:23:35.374Z,615.65
2023-03-12T07:26:06.230Z,535.70
2023-03-12T07:28:36.009Z,584.90
2023-03-12T07:31:05.282Z,685.45
2023-03-12T07:33:33.931Z,679.63
2023-03-12T07:36:02.911Z,622.75
2023-03-12T07:38:32.920Z,617.10
2023-03-12T07:41:01.519Z,595.70
2023-03-12T07:43:30.042Z,533.75
2023-03-12T07:45:59.837Z,624.20
2023-03-12T07:48:28.384Z,595.65
2023-03-12T07:50:57.421Z,572.25
2023-03-12T07:53:27.438Z,556.45
2023-03-12T07:55:56.838Z,611.75
2023-03-12T07:58:25.344Z,556.10
2023-03-12T08:00:55.735Z,545.40
2023-03-12T08:03:29.128Z,483.83
2023-03-12T08:05:59.612Z,447.33
2023-03-12T08:08:28.632Z,430.50
2023-03-12T08:10:57.202Z,462.63
2023-03-12T08:13:32.941Z,345.73
2023-03-12T08:16:01.567Z,328.92
2023-03-12T08:18:31.469Z,342.45
2023-03-12T08:20:59.885Z,322.48
2023-03-12T08:23:28.364Z,314.23
2023-03-12T08:25:57.059Z,337.95
2023-03-12T08:28:25.741Z,385.42
2023-03-12T08:30:58.067Z,467.60
2023-03-12T08:33:26.618Z,335.80
2023-03-12T08:35:56.610Z,336.48
2023-03-12T08:38:25.322Z,374.80
2023-03-12T08:41:14.886Z,378.63
2023-03-12T08:43:43.302Z,362.55
2023-03-12T08:46:19.506Z,399.42
2023-03-12T08:48:48.094Z,421.52
2023-03-12T08:51:34.603Z,386.75
2023-03-12T08:54:03.067Z,403.63
2023-03-12T08:56:31.424Z,325.70
2023-03-12T08:59:03.041Z,374.08
2023-03-12T09:01:46.817Z,341.77
2023-03-12T09:04:15.492Z,356.95
2023-03-12T09:06:46.655Z,345.27
2023-03-12T09:09:15.100Z,362.38
2023-03-12T09:11:43.416Z,333.25
2023-03-12T09:17:00.428Z,300.52
2023-03-12T09:19:28.840Z,276.75
2023-03-12T09:21:58.786Z,286.92
2023-03-12T09:24:27.333Z,338.70
2023-03-12T09:26:55.787Z,337.40
2023-03-12T09:29:24.702Z,304.30
2023-03-12T09:31:53.175Z,296.77
2023-03-12T09:34:21.505Z,282.58
2023-03-12T09:36:50.007Z,348.13
2023-03-12T09:39:20.758Z,350.70
2023-03-12T09:41:49.640Z,394.90
2023-03-12T09:44:23.655Z,338.48
2023-03-12T09:46:55.597Z,346.20
2023-03-12T09:49:31.274Z,339.75
2023-03-12T09:52:02.997Z,354.73
2023-03-12T09:54:38.133Z,341.08
2023-03-12T09:57:12.745Z,340.90
2023-03-12T09:59:41.319Z,332.60
2023-03-12T10:10:32.335Z,349.60
2023-03-12T10:13:14.858Z,320.10
2023-03-12T10:15:50.474Z,397.52
2023-03-12T10:18:27.248Z,488.83
2023-03-12T10:21:20.186Z,360.77
2023-03-12T10:24:06.836Z,330.98
2023-03-12T10:26:39.451Z,322.58
2023-03-12T10:29:13.581Z,381.38
2023-03-12T10:31:49.812Z,437.65
2023-03-12T10:34:22.457Z,322.58
2023-03-12T10:36:51.172Z,368.60
2023-03-12T10:39:20.762Z,392.42
2023-03-12T10:41:50.696Z,354.45
2023-03-12T10:44:22.696Z,355.00
2023-03-12T10:47:06.145Z,345.35
2023-03-12T10:49:36.411Z,346.48
2023-03-12T10:52:08.133Z,354.92
2023-03-12T10:54:38.659Z,349.02
2023-03-12T10:57:09.430Z,379.30
2023-03-12T10:59:39.691Z,536.00
2023-03-12T11:02:31.714Z,354.38
2023-03-12T11:05:01.148Z,488.85
2023-03-12T11:07:30.721Z,404.17
2023-03-12T11:10:18.377Z,413.95
2023-03-12T11:13:06.149Z,486.10
2023-03-12T11:15:43.698Z,450.85
2023-03-12T11:18:33.067Z,619.65
2023-03-12T11:21:16.216Z,527.25
2023-03-12T11:23:48.212Z,432.10
2023-03-12T11:26:20.487Z,455.98
2023-03-12T11:28:52.064Z,622.17
2023-03-12T11:31:26.584Z,432.48
2023-03-12T11:33:58.500Z,439.90
2023-03-12T11:36:38.231Z,488.90
2023-03-12T11:39:16.257Z,404.73
2023-03-12T11:42:04.371Z,434.95
2023-03-12T12:00:48.802Z,482.15
2023-03-12T12:03:47.151Z,473.42
2023-03-12T12:06:21.352Z,451.05
2023-03-12T12:08:58.263Z,514.88
2023-03-12T12:11:33.297Z,483.88
2023-03-12T12:14:11.665Z,426.92
2023-03-12T12:16:50.275Z,472.98
2023-03-12T12:19:28.325Z,579.50
2023-03-12T12:22:10.979Z,505.00
2023-03-12T12:24:49.585Z,405.13
2023-03-12T12:27:32.281Z,420.90
2023-03-12T12:30:17.156Z,467.60
2023-03-12T12:33:09.745Z,482.52
2023-03-12T12:35:39.199Z,465.45
2023-03-12T12:38:14.099Z,468.55
2023-03-12T12:40:44.754Z,557.38
2023-03-12T12:43:28.106Z,472.30
2023-03-12T12:45:59.723Z,456.85
2023-03-12T12:48:33.074Z,415.77
2023-03-12T12:51:02.108Z,377.58
2023-03-12T12:53:34.946Z,424.40
2023-03-12T12:56:10.010Z,345.15
2023-03-12T12:58:47.776Z,390.60
2023-03-12T13:01:17.419Z,525.92
2023-03-12T13:03:48.113Z,373.55
2023-03-12T13:06:16.593Z,361.23
2023-03-12T13:09:15.565Z,359.55
2023-03-12T13:11:47.802Z,413.75
2023-03-12T13:14:49.953Z,415.20
2023-03-12T13:17:25.345Z,433.48
2023-03-12T13:20:01.669Z,544.88
2023-03-12T13:23:00.746Z,459.75
2023-03-12T13:25:55.802Z,424.38
2023-03-12T13:28:41.575Z,407.60
2023-03-12T13:31:35.763Z,362.73
2023-03-12T13:34:42.537Z,499.48
2023-03-12T13:37:55.991Z,385.15
2023-03-12T13:40:38.995Z,352.17
2023-03-12T13:43:12.950Z,401.88
2023-03-12T13:45:56.373Z,463.83
2023-03-12T13:48:26.169Z,393.65
2023-03-12T13:50:58.752Z,420.38
2023-03-12T13:53:29.596Z,408.83
2023-03-12T13:56:07.240Z,440.88
2023-03-12T13:58:42.839Z,559.40
2023-03-12T14:01:20.622Z,459.20
2023-03-12T14:03:51.995Z,636.35
2023-03-12T14:06:23.095Z,438.25
2023-03-12T14:09:08.958Z,427.67
2023-03-12T14:11:46.691Z,376.52
2023-03-12T14:14:48.051Z,441.45
2023-03-12T14:17:18.785Z,521.13
2023-03-12T14:19:49.482Z,416.70
2023-03-12T14:22:22.698Z,573.88
2023-03-12T14:24:54.957Z,437.55
2023-03-12T14:27:27.198Z,449.40
2023-03-12T14:29:59.692Z,397.85
2023-03-12T14:32:30.929Z,426.75
2023-03-12T14:35:10.326Z,508.33
2023-03-12T14:37:43.778Z,456.75
2023-03-12T14:40:22.486Z,490.02
2023-03-12T14:42:50.949Z,433.45
2023-03-12T14:45:27.387Z,412.85
2023-03-12T14:47:57.518Z,444.35
2023-03-12T14:50:28.478Z,402.45
2023-03-12T14:53:19.620Z,439.65
2023-03-12T14:55:48.330Z,551.55
2023-03-12T14:58:19.113Z,614.55
2023-03-12T15:00:57.606Z,392.73
2023-03-12T15:03:27.257Z,407.88
2023-03-12T15:05:56.031Z,512.28
2023-03-12T15:08:26.148Z,526.33
2023-03-12T15:10:56.994Z,441.00
2023-03-12T15:13:26.651Z,368.65
2023-03-12T15:15:58.374Z,405.83
2023-03-12T15:18:28.375Z,431.58
2023-03-12T15:20:59.093Z,410.70
2023-03-12T15:23:32.019Z,651.15
2023-03-12T15:26:11.793Z,393.00
2023-03-12T15:36:06.520Z,283.58
2023-03-12T15:38:38.380Z,317.38
2023-03-12T15:41:10.438Z,323.60
2023-03-12T15:43:38.776Z,354.27
2023-03-12T15:46:08.084Z,321.13
2023-03-12T15:48:39.321Z,414.17
2023-03-12T15:51:14.681Z,406.85
2023-03-12T15:53:44.390Z,323.40
2023-03-12T15:56:23.845Z,439.92
2023-03-12T15:59:02.868Z,378.70
2023-03-12T16:01:34.651Z,548.92
2023-03-12T16:04:05.747Z,392.02
2023-03-12T16:06:36.565Z,354.92
2023-03-12T16:09:06.399Z,386.35
2023-03-12T16:11:38.164Z,378.40
2023-03-12T16:14:12.138Z,288.98
2023-03-12T16:16:41.166Z,345.30
2023-03-12T16:19:12.923Z,399.50
2023-03-12T16:21:41.708Z,524.45
2023-03-12T16:24:12.108Z,434.67
2023-03-12T16:26:46.778Z,388.27
2023-03-12T16:29:17.961Z,419.08
2023-03-12T16:31:46.542Z,315.58
2023-03-12T16:34:15.043Z,359.67
2023-03-12T16:36:43.435Z,412.77
2023-03-12T16:39:13.189Z,362.73
2023-03-12T16:41:41.602Z,517.80
2023-03-12T16:44:18.094Z,582.72
2023-03-12T16:46:46.619Z,406.55
2023-03-12T16:49:16.750Z,393.70
2023-03-12T16:51:48.015Z,320.80
2023-03-12T16:54:17.745Z,330.02
2023-03-12T16:56:47.905Z,387.58
2023-03-12T16:59:23.693Z,304.63
2023-03-12T17:01:52.739Z,367.13
2023-03-12T17:04:21.219Z,362.23
2023-03-12T17:06:49.765Z,370.98
2023-03-12T17:09:20.736Z,332.75
2023-03-12T17:11:50.420Z,322.20
2023-03-12T17:14:21.928Z,334.88
2023-03-12T17:16:50.532Z,297.73
2023-03-12T17:19:19.114Z,309.00
2023-03-12T17:21:47.842Z,317.55
2023-03-12T17:24:16.806Z,522.08
2023-03-12T17:27:31.836Z,362.65
2023-03-12T17:38:15.239Z,287.73
2023-03-12T17:40:48.337Z,321.42
2023-03-12T17:43:16.808Z,322.52
2023-03-12T17:45:45.319Z,308.35
2023-03-12T17:48:13.727Z,304.10
2023-03-12T17:50:42.213Z,309.80
2023-03-12T17:53:10.647Z,314.45
2023-03-12T17:55:39.146Z,361.42
2023-03-12T17:58:09.478Z,306.42
2023-03-12T18:00:37.889Z,309.73
2023-03-12T18:03:06.338Z,412.83
2023-03-12T18:05:34.923Z,300.83
2023-03-12T18:08:03.255Z,292.45
2023-03-12T18:10:32.884Z,320.70
2023-03-12T18:13:01.275Z,284.70
2023-03-12T18:15:30.972Z,290.02
2023-03-12T18:18:00.926Z,294.77
2023-03-12T18:20:38.513Z,401.05
2023-03-12T18:23:08.131Z,276.30
2023-03-12T18:25:37.826Z,313.60
2023-03-12T18:28:06.379Z,289.80
2023-03-12T18:30:36.334Z,310.13
2023-03-12T18:33:05.180Z,309.38
2023-03-12T18:35:34.099Z,313.65
2023-03-12T18:38:02.880Z,310.85
2023-03-12T18:40:32.953Z,302.42
2023-03-12T18:43:01.664Z,286.92
2023-03-12T18:45:30.216Z,303.85
2023-03-12T18:47:59.978Z,304.80
2023-03-12T18:50:28.442Z,303.67
2023-03-12T18:52:56.947Z,296.23
2023-03-12T18:55:25.275Z,291.40
2023-03-12T18:57:53.798Z,290.55
2023-03-12T19:00:22.455Z,294.55
2023-03-12T19:02:51.002Z,285.52
2023-03-12T19:05:21.015Z,297.65
2023-03-12T19:07:49.669Z,297.25
2023-03-12T19:10:18.295Z,285.80
2023-03-12T19:12:53.133Z,292.52
2023-03-12T19:15:24.034Z,384.15
2023-03-12T19:17:54.149Z,282.77
2023-03-12T19:20:24.441Z,287.50
2023-03-12T19:22:53.155Z,315.98
2023-03-12T19:25:21.705Z,300.17
2023-03-12T19:32:25.354Z,282.85
2023-03-12T19:34:56.136Z,280.38
2023-03-12T19:40:53.687Z,297.23
2023-03-12T19:43:23.462Z,359.92
2023-03-12T19:45:51.938Z,303.02
2023-03-12T19:48:20.521Z,284.58
2023-03-12T19:50:49.703Z,375.48
2023-03-12T19:53:19.960Z,467.40
2023-03-12T19:55:49.007Z,295.88
2023-03-12T19:58:17.926Z,325.85
2023-03-12T20:00:46.780Z,283.75
2023-03-12T20:03:15.362Z,310.13
2023-03-12T20:05:45.111Z,343.80
2023-03-12T20:08:13.819Z,401.05
2023-03-12T20:10:44.127Z,369.88
2023-03-12T20:13:17.473Z,307.30
2023-03-12T20:15:46.811Z,338.50
2023-03-12T20:18:15.709Z,310.27
2023-03-12T20:20:44.945Z,322.85
2023-03-12T20:23:13.551Z,365.23
2023-03-12T20:25:43.617Z,318.10
2023-03-12T20:28:12.113Z,398.65
2023-03-12T20:30:41.619Z,337.30
2023-03-12T20:33:10.258Z,326.60
2023-03-12T20:35:39.587Z,415.92
2023-03-12T20:38:08.351Z,384.92
2023-03-12T20:40:36.805Z,396.23
2023-03-12T20:43:06.847Z,323.67
2023-03-12T20:45:35.934Z,322.70
2023-03-12T20:48:04.644Z,365.15
2023-03-12T20:50:34.036Z,341.80
2023-03-12T20:53:02.756Z,505.98
2023-03-12T20:55:31.306Z,421.45
2023-03-12T20:58:00.140Z,359.58
2023-03-12T21:00:30.768Z,281.00
2023-03-12T21:02:59.472Z,282.58
2023-03-12T21:05:28.989Z,300.10
2023-03-12T21:07:58.491Z,306.40
2023-03-12T21:10:27.360Z,312.60
2023-03-12T21:12:56.134Z,313.67
2023-03-12T21:15:26.512Z,320.25
2023-03-12T21:17:56.546Z,328.15
2023-03-12T21:20:25.806Z,395.20
2023-03-12T21:22:54.419Z,316.50
2023-03-12T21:25:24.607Z,308.40
2023-03-12T21:28:16.973Z,426.65
2023-03-12T21:31:12.990Z,418.15
2023-03-12T21:33:47.657Z,374.35
2023-03-12T21:38:58.789Z,344.83
2023-03-12T21:41:36.690Z,416.17
2023-03-12T21:44:10.119Z,399.17
2023-03-12T21:46:48.497Z,377.48
2023-03-12T21:49:22.809Z,474.38
2023-03-12T21:51:56.042Z,473.50
2023-03-12T21:54:30.869Z,440.58
2023-03-12T21:57:01.479Z,448.63
2023-03-12T21:59:31.201Z,449.33
2023-03-12T22:01:59.760Z,469.80
2023-03-12T22:04:29.943Z,495.83
2023-03-12T22:06:59.112Z,487.42
2023-03-12T22:09:28.002Z,530.70
2023-03-12T22:11:58.491Z,532.53
2023-03-12T22:14:27.671Z,519.63
2023-03-12T22:16:56.860Z,526.72
2023-03-12T22:19:26.846Z,500.35
2023-03-12T22:21:56.706Z,530.25
2023-03-12T22:24:25.291Z,523.53
2023-03-12T22:26:53.936Z,528.78
2023-03-12T22:29:22.428Z,532.22
2023-03-12T22:31:50.964Z,524.97
2023-03-12T22:34:22.297Z,519.75
2023-03-12T22:36:51.060Z,530.28
2023-03-12T22:39:21.327Z,515.95
2023-03-12T22:41:51.540Z,537.50
2023-03-12T22:44:20.176Z,513.25
2023-03-12T22:46:48.916Z,525.92
2023-03-12T22:49:17.528Z,539.70
2023-03-12T22:51:46.031Z,536.17
2023-03-12T22:54:14.541Z,522.97
2023-03-12T22:56:44.503Z,574.42
2023-03-12T22:59:13.100Z,540.72
2023-03-12T23:01:41.847Z,543.58
2023-03-12T23:04:10.365Z,550.20
2023-03-12T23:06:38.940Z,600.88
2023-03-12T23:09:07.424Z,548.03
2023-03-12T23:11:35.956Z,542.97
2023-03-12T23:14:05.881Z,520.38
2023-03-12T23:16:36.242Z,562.65
2023-03-12T23:19:05.147Z,537.80
2023-03-12T23:21:36.305Z,551.67
2023-03-12T23:24:04.912Z,603.45
2023-03-12T23:26:33.864Z,522.80
2023-03-12T23:29:04.321Z,533.10
2023-03-12T23:31:37.221Z,553.97
2023-03-12T23:34:06.095Z,539.08
2023-03-12T23:36:36.289Z,532.45
2023-03-12T23:39:05.298Z,542.58
2023-03-12T23:41:34.029Z,527.28
2023-03-12T23:44:02.967Z,523.83
2023-03-12T23:46:33.045Z,561.53
2023-03-12T23:49:01.748Z,601.42
2023-03-12T23:51:31.414Z,576.83
2023-03-12T23:54:01.878Z,544.50
2023-03-12T23:56:34.460Z,551.45
2023-03-12T23:59:03.605Z,586.40
